KGTR/GTR METAR and TAF weather

Enter ICAO airport designator
Station Type Date Time Source
KGTR METAR 2022/01/25 04:56 UTC NOAA

KGTR 250456Z AUTO 20005KT 10SM OVC070 09/03 A2993 RMK AO2 SLP143 T00890028


Station Type Date Time Source
KGTR Decoded METAR 2022/01/25 04:56 UTC NOAA

Columbus/West Point/Starkville, Golden Triangle Regional Airport, MS, United States (KGTR) 33-27N 088-35W
Jan 24, 2022 - 11:56 PM EST / 2022.01.25 0456 UTC
Wind: from the SSW (200 degrees) at 6 MPH (5 KT):0
Visibility: 10 mile(s):0
Sky conditions: overcast
Temperature: 48.0 F (8.9 C)
Dew Point: 37.0 F (2.8 C)
Relative Humidity: 65%
Pressure (altimeter): 29.93 in. Hg (1013 hPa)
ob: KGTR 250456Z AUTO 20005KT 10SM OVC070 09/03 A2993 RMK AO2 SLP143 T00890028
cycle: 5

Station Type Date Time Source
KGTR TAF 2022/01/24 18:45 UTC NOAA

TAF KGTR 241741Z 2418/2518 21005KT P6SM SKC
FM251100 33004KT P6SM OVC009

Example: see airport list